Time;durP1;ratioP1;P1;durP2;ratioP2;P2;SDS_P1;SDS_P2;PMS_P1;PMS_P2;Temp;Humidity;BMP_temperature;BMP_pressure;BME280_temperature;BME280_humidity;BME280_pressure;Samples;Min_cycle;Max_cycle;Signal;HPM_P1;HPM_P2
2022/05/02 00:00:11;;;;;;;15.63;11.88;;;;;;;;;;5052815;28;20287;-71
2022/05/02 00:02:38;;;;;;;15.25;11.40;;;;;;;;;;5053455;28;20200;-71
2022/05/02 00:05:08;;;;;;;13.95;12.48;;;;;;;;;;5052829;28;20582;-71
2022/05/02 00:07:35;;;;;;;17.63;11.20;;;;;;;;;;5056969;28;20654;-72
2022/05/02 00:10:03;;;;;;;14.40;11.77;;;;;;;;;;5057232;28;20201;-72
2022/05/02 00:12:30;;;;;;;14.40;12.07;;;;;;;;;;5056958;28;20197;-72
2022/05/02 00:14:57;;;;;;;15.88;11.93;;;;;;;;;;5057132;28;20206;-71
2022/05/02 00:17:56;;;;;;;12.82;11.52;;;;;;;;;;5057093;28;20204;-71
2022/05/02 00:20:14;;;;;;;13.68;11.32;;;;;;;;;;5056626;28;20201;-71
2022/05/02 00:22:41;;;;;;;14.70;12.60;;;;;;;;;;5057253;28;20285;-72
2022/05/02 00:25:08;;;;;;;13.27;11.75;;;;;;;;;;5056900;28;20312;-71
2022/05/02 00:27:36;;;;;;;14.80;12.25;;;;;;;;;;5056808;28;20224;-72
2022/05/02 00:30:03;;;;;;;13.95;11.63;;;;;;;;;;5056405;28;20666;-71
2022/05/02 00:32:30;;;;;;;13.75;11.82;;;;;;;;;;5056805;28;20619;-71
2022/05/02 00:34:57;;;;;;;14.10;12.48;;;;;;;;;;5056272;28;20200;-72
2022/05/02 00:37:26;;;;;;;15.90;11.48;;;;;;;;;;5056524;28;20229;-72
2022/05/02 00:39:53;;;;;;;14.13;12.73;;;;;;;;;;5056780;28;20273;-71
2022/05/02 00:42:20;;;;;;;13.60;12.30;;;;;;;;;;5056595;28;20204;-72
2022/05/02 00:44:48;;;;;;;14.38;12.70;;;;;;;;;;5056146;28;20217;-72
2022/05/02 00:47:20;;;;;;;14.98;12.25;;;;;;;;;;5056042;28;20196;-72
2022/05/02 00:49:47;;;;;;;22.55;14.38;;;;;;;;;;5056467;28;20279;-72
2022/05/02 00:52:15;;;;;;;14.00;12.55;;;;;;;;;;5056596;28;20201;-72
2022/05/02 00:54:43;;;;;;;16.52;13.55;;;;;;;;;;5056665;28;20201;-72
2022/05/02 00:57:12;;;;;;;13.45;11.98;;;;;;;;;;5055956;28;20197;-72
2022/05/02 00:59:40;;;;;;;14.10;12.45;;;;;;;;;;5055872;28;20665;-72
2022/05/02 01:02:08;;;;;;;13.43;12.10;;;;;;;;;;5056554;28;20237;-72
2022/05/02 01:04:36;;;;;;;16.80;12.93;;;;;;;;;;5055592;28;20312;-72
2022/05/02 01:07:08;;;;;;;14.57;12.60;;;;;;;;;;5056197;28;20203;-72
2022/05/02 01:09:38;;;;;;;14.38;12.82;;;;;;;;;;5056484;28;20601;-73
2022/05/02 01:12:07;;;;;;;15.52;13.90;;;;;;;;;;5056076;28;20193;-72
2022/05/02 01:14:35;;;;;;;14.23;12.73;;;;;;;;;;5056121;28;20202;-72
2022/05/02 01:17:02;;;;;;;18.80;13.38;;;;;;;;;;5055240;28;20212;-71
2022/05/02 01:19:29;;;;;;;15.38;13.27;;;;;;;;;;5055233;28;20209;-72
2022/05/02 01:21:58;;;;;;;13.90;12.40;;;;;;;;;;5056132;28;20547;-72
2022/05/02 01:24:33;;;;;;;16.98;13.50;;;;;;;;;;5055990;28;20228;-72
2022/05/02 01:27:01;;;;;;;14.18;12.68;;;;;;;;;;5056117;28;20242;-72
2022/05/02 01:29:28;;;;;;;18.55;14.32;;;;;;;;;;5055458;28;20197;-71
2022/05/02 01:31:55;;;;;;;14.77;13.00;;;;;;;;;;5055437;28;20199;-72
2022/05/02 01:34:22;;;;;;;16.65;12.38;;;;;;;;;;5056123;28;20233;-72
2022/05/02 01:36:49;;;;;;;14.23;12.43;;;;;;;;;;5055427;28;20213;-72
2022/05/02 01:39:18;;;;;;;16.40;12.82;;;;;;;;;;5055757;28;20230;-71
2022/05/02 01:41:46;;;;;;;13.32;11.57;;;;;;;;;;5055478;28;20287;-72
2022/05/02 01:44:14;;;;;;;16.10;13.40;;;;;;;;;;5055114;28;20200;-71
2022/05/02 01:46:41;;;;;;;15.00;13.45;;;;;;;;;;5055013;28;20229;-72
2022/05/02 01:49:08;;;;;;;14.57;12.82;;;;;;;;;;5055599;28;20658;-71
2022/05/02 01:51:35;;;;;;;18.02;12.43;;;;;;;;;;5055545;28;20301;-72
2022/05/02 01:54:03;;;;;;;13.95;11.73;;;;;;;;;;5055390;28;20200;-71
2022/05/02 01:56:31;;;;;;;15.80;12.88;;;;;;;;;;5055164;28;20286;-72
2022/05/02 01:58:58;;;;;;;17.48;13.15;;;;;;;;;;5055399;28;20222;-71
2022/05/02 02:01:26;;;;;;;14.98;12.40;;;;;;;;;;5054827;28;20236;-71
2022/05/02 02:03:53;;;;;;;17.10;11.77;;;;;;;;;;5054860;28;20736;-71
2022/05/02 02:06:19;;;;;;;16.38;11.55;;;;;;;;;;5054962;28;20233;-71
2022/05/02 02:08:46;;;;;;;14.02;12.00;;;;;;;;;;5055090;28;20194;-72
2022/05/02 02:11:14;;;;;;;12.95;11.23;;;;;;;;;;5054640;28;20669;-72
2022/05/02 02:13:43;;;;;;;14.60;11.82;;;;;;;;;;5054711;28;20201;-72
2022/05/02 02:16:10;;;;;;;12.60;11.38;;;;;;;;;;5054840;28;20208;-71
2022/05/02 02:18:39;;;;;;;20.60;11.40;;;;;;;;;;5054853;28;20305;-71
2022/05/02 02:21:06;;;;;;;12.70;11.35;;;;;;;;;;5055122;28;20202;-72
2022/05/02 02:23:34;;;;;;;16.42;12.27;;;;;;;;;;5054519;28;20571;-71
2022/05/02 02:26:01;;;;;;;13.85;11.82;;;;;;;;;;5054595;28;20225;-72
2022/05/02 02:28:28;;;;;;;14.15;11.93;;;;;;;;;;5054201;28;20207;-71
2022/05/02 02:30:57;;;;;;;13.00;11.55;;;;;;;;;;5053515;28;20544;-71
2022/05/02 02:33:24;;;;;;;12.73;11.45;;;;;;;;;;5054628;28;20197;-71
2022/05/02 02:35:51;;;;;;;12.88;11.52;;;;;;;;;;5054418;28;20580;-71
2022/05/02 02:38:18;;;;;;;13.82;10.68;;;;;;;;;;5054695;28;20234;-71
2022/05/02 02:40:46;;;;;;;12.90;11.00;;;;;;;;;;5054021;28;20253;-71
2022/05/02 02:43:13;;;;;;;13.82;11.70;;;;;;;;;;5054992;28;20222;-71
2022/05/02 02:45:40;;;;;;;17.02;12.30;;;;;;;;;;5054186;28;20226;-72
2022/05/02 02:48:09;;;;;;;15.38;12.05;;;;;;;;;;5054095;28;20197;-71
2022/05/02 02:50:36;;;;;;;16.70;12.85;;;;;;;;;;5054180;28;20197;-71
2022/05/02 02:53:04;;;;;;;15.43;12.00;;;;;;;;;;5053929;28;20208;-72
2022/05/02 02:55:31;;;;;;;14.55;11.30;;;;;;;;;;5053876;28;20651;-71
2022/05/02 02:57:58;;;;;;;14.60;12.40;;;;;;;;;;5053797;28;20229;-72
2022/05/02 03:00:26;;;;;;;16.08;12.52;;;;;;;;;;5053774;28;20202;-71
2022/05/02 03:02:54;;;;;;;12.82;11.50;;;;;;;;;;5054002;28;20220;-71
2022/05/02 03:08:09;;;;;;;14.68;12.20;;;;;;;;;;5053762;28;20184;-71
2022/05/02 03:10:37;;;;;;;14.48;12.98;;;;;;;;;;5053983;28;20310;-71
2022/05/02 03:13:05;;;;;;;12.82;11.48;;;;;;;;;;5053520;28;20196;-71
2022/05/02 03:15:33;;;;;;;17.58;11.23;;;;;;;;;;5053582;28;20690;-71
2022/05/02 03:18:00;;;;;;;11.55;10.35;;;;;;;;;;5053544;28;20424;-71
2022/05/02 03:20:29;;;;;;;14.70;10.80;;;;;;;;;;5053786;28;20204;-71
2022/05/02 03:22:56;;;;;;;13.45;12.05;;;;;;;;;;5053788;28;20199;-71
2022/05/02 03:25:23;;;;;;;16.23;11.32;;;;;;;;;;5053751;28;20243;-71
2022/05/02 03:27:51;;;;;;;11.52;10.02;;;;;;;;;;5053561;28;20200;-71
2022/05/02 03:30:18;;;;;;;13.05;10.50;;;;;;;;;;5054239;28;20196;-71
2022/05/02 03:32:45;;;;;;;14.90;10.75;;;;;;;;;;5053512;28;20674;-71
2022/05/02 03:35:12;;;;;;;12.23;10.90;;;;;;;;;;5053785;28;20205;-72
2022/05/02 03:37:41;;;;;;;13.40;10.48;;;;;;;;;;5053548;28;20236;-72
2022/05/02 03:40:08;;;;;;;12.50;9.90;;;;;;;;;;5053338;28;20195;-72
2022/05/02 03:42:37;;;;;;;12.60;11.30;;;;;;;;;;5053358;28;20201;-72
2022/05/02 03:45:05;;;;;;;12.30;10.43;;;;;;;;;;5053574;28;20255;-72
2022/05/02 03:47:32;;;;;;;9.40;8.50;;;;;;;;;;5053494;28;20204;-71
2022/05/02 03:49:59;;;;;;;12.93;10.38;;;;;;;;;;5053605;28;20191;-71
2022/05/02 03:52:26;;;;;;;11.48;9.20;;;;;;;;;;5053364;28;20196;-71
2022/05/02 03:54:55;;;;;;;10.25;8.85;;;;;;;;;;5053095;28;20198;-72
2022/05/02 03:57:22;;;;;;;13.57;9.82;;;;;;;;;;5053316;28;20191;-71
2022/05/02 03:59:50;;;;;;;11.63;10.40;;;;;;;;;;5053325;28;20198;-71
2022/05/02 04:02:17;;;;;;;13.25;11.38;;;;;;;;;;5052971;28;20235;-71
2022/05/02 04:04:44;;;;;;;15.00;9.93;;;;;;;;;;5053741;28;20199;-71
2022/05/02 04:07:11;;;;;;;12.88;10.30;;;;;;;;;;5053244;28;20217;-71
2022/05/02 04:09:38;;;;;;;13.80;11.30;;;;;;;;;;5053005;28;20228;-71
2022/05/02 04:12:08;;;;;;;12.18;10.95;;;;;;;;;;5052103;28;20202;-71
2022/05/02 04:14:35;;;;;;;11.30;10.15;;;;;;;;;;5052618;28;20200;-70
2022/05/02 04:17:02;;;;;;;12.50;11.20;;;;;;;;;;5052457;28;20193;-71
2022/05/02 04:19:29;;;;;;;12.43;11.23;;;;;;;;;;5052995;28;20614;-71
2022/05/02 04:21:57;;;;;;;15.63;10.70;;;;;;;;;;5052444;28;20286;-72
2022/05/02 04:24:24;;;;;;;15.43;11.60;;;;;;;;;;5052521;28;20218;-71
2022/05/02 04:26:51;;;;;;;15.77;11.50;;;;;;;;;;5052049;28;20310;-72
2022/05/02 04:29:19;;;;;;;11.88;10.27;;;;;;;;;;5052898;28;20193;-71
2022/05/02 04:31:47;;;;;;;14.23;11.77;;;;;;;;;;5052094;28;20542;-71
2022/05/02 04:34:14;;;;;;;14.27;11.93;;;;;;;;;;5052953;28;20202;-71
2022/05/02 04:36:41;;;;;;;12.75;11.55;;;;;;;;;;5052448;28;20290;-71
2022/05/02 04:39:08;;;;;;;15.73;12.57;;;;;;;;;;5052440;28;20319;-71
2022/05/02 04:41:35;;;;;;;15.98;12.43;;;;;;;;;;5052964;28;20196;-71
2022/05/02 04:44:03;;;;;;;13.60;10.57;;;;;;;;;;5052818;28;20203;-71
2022/05/02 04:46:31;;;;;;;13.90;11.02;;;;;;;;;;5052599;28;20225;-67
2022/05/02 04:48:58;;;;;;;12.02;10.75;;;;;;;;;;5053068;28;20205;-67
2022/05/02 04:51:26;;;;;;;12.88;11.57;;;;;;;;;;5052368;28;20197;-67
2022/05/02 04:53:53;;;;;;;15.75;12.25;;;;;;;;;;5055227;28;20286;-67
2022/05/02 04:56:21;;;;;;;20.55;11.70;;;;;;;;;;5056366;28;20231;-67
2022/05/02 04:58:48;;;;;;;19.40;12.40;;;;;;;;;;5056344;28;20206;-67
2022/05/02 05:01:15;;;;;;;15.23;12.30;;;;;;;;;;5056431;28;20193;-67
2022/05/02 05:03:44;;;;;;;13.38;11.82;;;;;;;;;;5055938;28;20654;-67
2022/05/02 05:06:11;;;;;;;13.65;11.07;;;;;;;;;;5056141;28;20220;-67
2022/05/02 05:08:39;;;;;;;13.38;11.70;;;;;;;;;;5056053;28;20221;-68
2022/05/02 05:11:15;;;;;;;14.30;12.02;;;;;;;;;;5056047;28;20192;-67
2022/05/02 05:16:20;;;;;;;15.40;11.60;;;;;;;;;;5055528;28;20193;-67
2022/05/02 05:16:42;;;;;;;15.52;11.70;;;;;;;;;;5055448;28;20198;-67
2022/05/02 05:19:23;;;;;;;12.30;11.10;;;;;;;;;;5056009;28;20205;-67
2022/05/02 05:22:03;;;;;;;14.98;12.70;;;;;;;;;;5056212;28;20192;-68
2022/05/02 05:24:48;;;;;;;15.60;11.23;;;;;;;;;;5056037;28;20657;-68
2022/05/02 05:27:24;;;;;;;11.80;10.60;;;;;;;;;;5055565;28;20205;-73
2022/05/02 05:29:58;;;;;;;13.07;10.63;;;;;;;;;;5055456;28;20187;-73
2022/05/02 05:32:30;;;;;;;12.50;10.52;;;;;;;;;;5055890;28;20279;-72
2022/05/02 05:35:05;;;;;;;11.23;10.00;;;;;;;;;;5055785;28;20627;-73
2022/05/02 05:37:54;;;;;;;11.52;10.32;;;;;;;;;;5055130;28;20239;-72
2022/05/02 05:40:25;;;;;;;12.05;9.60;;;;;;;;;;5055352;28;20180;-72
2022/05/02 05:42:58;;;;;;;13.27;9.73;;;;;;;;;;5055757;28;20239;-72
2022/05/02 05:45:33;;;;;;;12.43;10.55;;;;;;;;;;5055676;28;20189;-72
2022/05/02 05:48:03;;;;;;;13.35;11.15;;;;;;;;;;5055371;28;20207;-72
2022/05/02 05:50:32;;;;;;;13.27;10.55;;;;;;;;;;5055441;28;20197;-72
2022/05/02 05:53:06;;;;;;;19.55;10.13;;;;;;;;;;5055913;28;20299;-72
2022/05/02 05:55:41;;;;;;;13.25;9.45;;;;;;;;;;5055591;28;20194;-73
2022/05/02 05:58:16;;;;;;;11.10;9.73;;;;;;;;;;5055343;28;20191;-72
2022/05/02 06:00:46;;;;;;;10.35;9.13;;;;;;;;;;5055114;28;20661;-73
2022/05/02 06:03:14;;;;;;;12.25;10.95;;;;;;;;;;5054822;28;20194;-72
2022/05/02 06:05:44;;;;;;;15.60;9.75;;;;;;;;;;5055189;28;20302;-73
2022/05/02 06:08:12;;;;;;;12.82;9.82;;;;;;;;;;5055015;28;20202;-73
2022/05/02 06:10:40;;;;;;;13.15;9.45;;;;;;;;;;5055199;28;20194;-72
2022/05/02 06:13:08;;;;;;;12.90;10.02;;;;;;;;;;5055087;28;20212;-73
2022/05/02 06:18:30;;;;;;;16.85;11.52;;;;;;;;;;5055043;28;20268;-73
2022/05/02 06:20:59;;;;;;;14.02;8.88;;;;;;;;;;5054583;28;20240;-73
2022/05/02 06:23:27;;;;;;;10.10;8.02;;;;;;;;;;5054430;28;20232;-72
2022/05/02 06:25:56;;;;;;;9.77;8.88;;;;;;;;;;5054675;28;20198;-73
2022/05/02 06:28:24;;;;;;;8.80;7.97;;;;;;;;;;5055019;28;20681;-73
2022/05/02 06:30:52;;;;;;;9.63;8.60;;;;;;;;;;5054235;28;20202;-73
2022/05/02 06:33:22;;;;;;;10.63;7.80;;;;;;;;;;5054605;28;20224;-72
2022/05/02 06:35:57;;;;;;;14.73;8.60;;;;;;;;;;5054431;28;20281;-73
2022/05/02 06:38:34;;;;;;;11.50;8.25;;;;;;;;;;5055180;28;20226;-72
2022/05/02 06:41:09;;;;;;;11.93;9.00;;;;;;;;;;5054421;28;20277;-72
2022/05/02 06:43:42;;;;;;;13.40;8.82;;;;;;;;;;5054719;28;20189;-72
2022/05/02 06:46:12;;;;;;;10.27;7.80;;;;;;;;;;5054668;28;20250;-72
2022/05/02 06:48:43;;;;;;;8.90;7.68;;;;;;;;;;5054476;28;20196;-73
2022/05/02 06:51:14;;;;;;;12.65;7.35;;;;;;;;;;5053883;28;20195;-73
2022/05/02 06:53:56;;;;;;;8.95;7.88;;;;;;;;;;5054275;28;20183;-72
2022/05/02 06:56:30;;;;;;;10.55;6.90;;;;;;;;;;5054598;28;20195;-73
2022/05/02 06:59:03;;;;;;;12.02;8.25;;;;;;;;;;5054422;28;20274;-73
2022/05/02 07:01:36;;;;;;;10.93;8.07;;;;;;;;;;5054238;28;20187;-72
2022/05/02 07:04:12;;;;;;;9.93;7.80;;;;;;;;;;5053655;28;20440;-72
2022/05/02 07:06:45;;;;;;;11.33;7.20;;;;;;;;;;5053915;28;20511;-72
2022/05/02 07:09:18;;;;;;;10.38;8.05;;;;;;;;;;5053593;28;20432;-72
2022/05/02 07:11:49;;;;;;;11.20;8.60;;;;;;;;;;5053946;28;20187;-72
2022/05/02 07:14:18;;;;;;;22.73;9.03;;;;;;;;;;5053671;28;20183;-73
2022/05/02 07:16:48;;;;;;;8.30;7.20;;;;;;;;;;5053252;28;20528;-72
2022/05/02 07:19:30;;;;;;;8.93;8.02;;;;;;;;;;5053510;28;20945;-72
2022/05/02 07:21:59;;;;;;;7.40;6.80;;;;;;;;;;5053549;28;20183;-72
2022/05/02 07:24:47;;;;;;;7.27;6.57;;;;;;;;;;5053719;28;20448;-72
2022/05/02 07:27:24;;;;;;;8.70;7.80;;;;;;;;;;5052488;28;20477;-73
2022/05/02 07:29:52;;;;;;;9.03;7.20;;;;;;;;;;5053717;28;20498;-72
2022/05/02 07:32:24;;;;;;;7.50;6.80;;;;;;;;;;5053289;28;20442;-73
2022/05/02 07:34:53;;;;;;;9.50;7.23;;;;;;;;;;5053453;28;20429;-72
2022/05/02 07:37:21;;;;;;;9.53;7.63;;;;;;;;;;5053234;28;20470;-72
2022/05/02 07:39:50;;;;;;;8.60;6.53;;;;;;;;;;5054053;28;20430;-72
2022/05/02 07:42:18;;;;;;;10.70;6.80;;;;;;;;;;5053810;28;20529;-72
2022/05/02 07:44:48;;;;;;;10.40;7.83;;;;;;;;;;5053372;28;20477;-72
2022/05/02 07:47:17;;;;;;;11.93;7.20;;;;;;;;;;5053266;28;20483;-73
2022/05/02 07:49:48;;;;;;;8.27;7.47;;;;;;;;;;5053124;28;20473;-72
2022/05/02 07:52:16;;;;;;;9.73;7.13;;;;;;;;;;5053071;28;20425;-74
2022/05/02 07:54:44;;;;;;;14.97;7.30;;;;;;;;;;5053234;28;20812;-73
2022/05/02 07:57:11;;;;;;;8.97;7.03;;;;;;;;;;5053265;28;20536;-73
2022/05/02 07:59:40;;;;;;;9.47;6.97;;;;;;;;;;5053353;28;20446;-73
2022/05/02 08:02:09;;;;;;;9.63;7.10;;;;;;;;;;5053251;28;20440;-72
2022/05/02 08:04:37;;;;;;;7.47;6.73;;;;;;;;;;5053360;28;20556;-72
2022/05/02 08:07:11;;;;;;;7.73;6.90;;;;;;;;;;5053037;28;20880;-73
2022/05/02 08:09:56;;;;;;;12.07;7.83;;;;;;;;;;5053342;28;20792;-72
2022/05/02 08:12:27;;;;;;;8.63;7.53;;;;;;;;;;5053027;28;20505;-73
2022/05/02 08:15:00;;;;;;;8.23;7.30;;;;;;;;;;5052934;28;20485;-73
2022/05/02 08:17:38;;;;;;;9.23;6.47;;;;;;;;;;5052466;28;20429;-72
2022/05/02 08:20:13;;;;;;;6.10;5.60;;;;;;;;;;5052790;28;20430;-72
2022/05/02 08:28:20;;;;;;;8.93;6.40;;;;;;;;;;5054543;28;20510;-73
2022/05/02 08:30:52;;;;;;;13.93;6.50;;;;;;;;;;5057218;28;20430;-72
2022/05/02 08:33:26;;;;;;;10.30;7.53;;;;;;;;;;5056937;28;20979;-73
2022/05/02 08:35:57;;;;;;;8.83;7.70;;;;;;;;;;5056525;28;20923;-73
2022/05/02 08:38:33;;;;;;;17.60;10.33;;;;;;;;;;5057045;28;20503;-72
2022/05/02 08:41:25;;;;;;;12.50;7.20;;;;;;;;;;5056434;28;20971;-73
2022/05/02 08:44:13;;;;;;;11.90;6.60;;;;;;;;;;5056801;28;20433;-73
2022/05/02 08:46:52;;;;;;;10.83;7.00;;;;;;;;;;5056589;28;20429;-72
2022/05/02 08:49:36;;;;;;;10.17;7.17;;;;;;;;;;5057199;28;20452;-73
2022/05/02 08:52:24;;;;;;;9.30;7.40;;;;;;;;;;5056727;28;20439;-73
2022/05/02 08:55:06;;;;;;;20.50;11.90;;;;;;;;;;5056861;28;20519;-73
2022/05/02 08:57:43;;;;;;;14.20;7.90;;;;;;;;;;5055610;28;20450;-74
2022/05/02 09:00:12;;;;;;;10.93;7.73;;;;;;;;;;5056207;28;20446;-73
2022/05/02 09:03:07;;;;;;;10.77;7.43;;;;;;;;;;5055998;28;20450;-73
2022/05/02 09:05:58;;;;;;;8.20;6.50;;;;;;;;;;5056644;28;20780;-73
2022/05/02 09:08:43;;;;;;;8.07;6.50;;;;;;;;;;5056809;28;20466;-72
2022/05/02 09:11:31;;;;;;;8.40;7.67;;;;;;;;;;5055866;28;20434;-73
2022/05/02 09:14:17;;;;;;;8.10;7.33;;;;;;;;;;5056859;28;20488;-73
2022/05/02 09:16:54;;;;;;;9.47;6.70;;;;;;;;;;5056077;28;20486;-73
2022/05/02 09:19:42;;;;;;;10.53;6.93;;;;;;;;;;5056309;28;20854;-73
2022/05/02 09:22:23;;;;;;;8.73;6.93;;;;;;;;;;5055709;28;20469;-73
2022/05/02 09:25:04;;;;;;;10.60;7.30;;;;;;;;;;5055656;28;20430;-73
2022/05/02 09:27:38;;;;;;;9.40;8.17;;;;;;;;;;5055814;28;20531;-73
2022/05/02 09:30:36;;;;;;;8.57;7.20;;;;;;;;;;5055608;28;20422;-73
2022/05/02 09:33:10;;;;;;;9.63;7.80;;;;;;;;;;5055807;28;20426;-73
2022/05/02 09:35:44;;;;;;;10.30;7.13;;;;;;;;;;5055852;28;20433;-73
2022/05/02 09:38:20;;;;;;;9.03;8.10;;;;;;;;;;5055142;28;20560;-73
2022/05/02 09:40:49;;;;;;;8.60;7.20;;;;;;;;;;5055424;28;20423;-73
2022/05/02 09:43:25;;;;;;;10.43;7.53;;;;;;;;;;5055296;28;20534;-73
2022/05/02 09:52:02;;;;;;;8.93;7.53;;;;;;;;;;5055244;28;20565;-73
2022/05/02 09:57:57;;;;;;;10.70;7.83;;;;;;;;;;5033069;28;20849;-73
2022/05/02 10:03:21;;;;;;;8.93;7.63;;;;;;;;;;5050219;28;20930;-73
2022/05/02 10:05:54;;;;;;;13.07;8.70;;;;;;;;;;5055206;28;20432;-73
2022/05/02 10:08:30;;;;;;;10.00;8.97;;;;;;;;;;5055030;28;20473;-73
2022/05/02 10:11:00;;;;;;;11.17;8.07;;;;;;;;;;5054871;28;20488;-73
2022/05/02 10:13:34;;;;;;;10.40;8.10;;;;;;;;;;5054668;28;20422;-74
2022/05/02 10:16:06;;;;;;;8.70;7.80;;;;;;;;;;5055192;28;20514;-73
2022/05/02 10:18:42;;;;;;;9.07;8.17;;;;;;;;;;5055191;28;20472;-73
2022/05/02 10:21:18;;;;;;;8.37;7.47;;;;;;;;;;5055125;28;20428;-72
2022/05/02 10:23:47;;;;;;;9.73;8.30;;;;;;;;;;5054573;28;20907;-73
2022/05/02 10:26:20;;;;;;;8.00;7.30;;;;;;;;;;5054740;28;20444;-73
2022/05/02 10:28:58;;;;;;;12.20;10.43;;;;;;;;;;5054388;28;20562;-72
2022/05/02 10:31:26;;;;;;;11.10;8.10;;;;;;;;;;5054726;28;20600;-73
2022/05/02 10:33:54;;;;;;;9.10;7.93;;;;;;;;;;5054530;28;20445;-73
2022/05/02 10:36:23;;;;;;;10.90;8.30;;;;;;;;;;5054887;28;20461;-73
2022/05/02 10:38:52;;;;;;;9.00;8.03;;;;;;;;;;5054418;28;20493;-73
2022/05/02 10:41:25;;;;;;;9.60;7.23;;;;;;;;;;5054446;28;20449;-73
2022/05/02 10:43:57;;;;;;;9.57;7.60;;;;;;;;;;5054028;28;20910;-73
2022/05/02 10:46:24;;;;;;;9.57;8.57;;;;;;;;;;5054924;28;20449;-73
2022/05/02 10:48:52;;;;;;;10.17;8.60;;;;;;;;;;5054450;28;20501;-73
2022/05/02 10:51:24;;;;;;;8.83;7.93;;;;;;;;;;5053538;28;20442;-73
2022/05/02 10:54:10;;;;;;;13.80;8.40;;;;;;;;;;5054268;28;20445;-72
2022/05/02 10:56:42;;;;;;;8.70;7.90;;;;;;;;;;5054178;28;20458;-73
2022/05/02 10:59:11;;;;;;;12.57;8.10;;;;;;;;;;5054335;28;20527;-73
2022/05/02 11:01:57;;;;;;;8.93;8.03;;;;;;;;;;5053649;28;20535;-73
2022/05/02 11:04:30;;;;;;;9.67;8.47;;;;;;;;;;5053547;28;20512;-73
2022/05/02 11:07:04;;;;;;;10.63;8.33;;;;;;;;;;5053560;28;20520;-73
2022/05/02 11:09:36;;;;;;;10.10;9.00;;;;;;;;;;5053847;28;20437;-73
2022/05/02 11:12:04;;;;;;;9.83;8.17;;;;;;;;;;5054298;28;20517;-73
2022/05/02 11:14:36;;;;;;;8.83;7.93;;;;;;;;;;5053279;28;20886;-73
2022/05/02 11:17:12;;;;;;;12.50;9.03;;;;;;;;;;5054391;28;20437;-73
2022/05/02 11:22:30;;;;;;;13.10;9.43;;;;;;;;;;5053543;28;20407;-73
2022/05/02 11:25:06;;;;;;;12.70;7.50;;;;;;;;;;5053655;28;20457;-73
2022/05/02 11:27:42;;;;;;;11.30;8.60;;;;;;;;;;5053665;28;20829;-73
2022/05/02 11:30:12;;;;;;;11.20;8.60;;;;;;;;;;5053277;28;20433;-73
2022/05/02 11:32:44;;;;;;;16.40;7.77;;;;;;;;;;5053171;28;20440;-73
2022/05/02 11:35:13;;;;;;;9.30;8.30;;;;;;;;;;5053688;28;20431;-73
2022/05/02 11:37:44;;;;;;;15.53;8.70;;;;;;;;;;5053251;28;20480;-74
2022/05/02 11:40:12;;;;;;;11.63;8.43;;;;;;;;;;5053652;28;20446;-68
2022/05/02 11:42:47;;;;;;;11.07;8.30;;;;;;;;;;5053849;28;20519;-77
2022/05/02 11:45:17;;;;;;;10.20;9.13;;;;;;;;;;5053962;28;20536;-74
2022/05/02 11:47:54;;;;;;;11.10;8.73;;;;;;;;;;5052823;28;20521;-74
2022/05/02 11:50:23;;;;;;;12.10;8.60;;;;;;;;;;5053930;28;20542;-76
2022/05/02 11:52:52;;;;;;;17.57;11.40;;;;;;;;;;5053278;28;20447;-72
2022/05/02 11:55:20;;;;;;;10.70;8.50;;;;;;;;;;5052907;28;20475;-75
2022/05/02 11:57:51;;;;;;;8.07;7.27;;;;;;;;;;5052881;28;20527;-73
2022/05/02 12:00:19;;;;;;;13.60;11.10;;;;;;;;;;5053439;28;20446;-74
2022/05/02 12:02:48;;;;;;;8.27;7.50;;;;;;;;;;5055911;28;20522;-75
2022/05/02 12:05:23;;;;;;;16.27;8.83;;;;;;;;;;5056489;28;20931;-74
2022/05/02 12:07:54;;;;;;;9.93;8.83;;;;;;;;;;5056876;28;20555;-73
2022/05/02 12:10:22;;;;;;;8.97;7.77;;;;;;;;;;5056954;28;20443;-73
2022/05/02 12:12:50;;;;;;;10.17;8.00;;;;;;;;;;5056724;28;20469;-73
2022/05/02 12:15:18;;;;;;;11.57;7.87;;;;;;;;;;5056231;28;20937;-74
2022/05/02 12:17:56;;;;;;;16.33;8.53;;;;;;;;;;5056604;28;20450;-73
2022/05/02 12:20:25;;;;;;;12.60;9.60;;;;;;;;;;5056212;28;20443;-73
2022/05/02 12:22:55;;;;;;;9.50;8.40;;;;;;;;;;5056767;28;20442;-74
2022/05/02 12:25:23;;;;;;;8.67;7.80;;;;;;;;;;5056321;28;20447;-74
2022/05/02 12:27:51;;;;;;;8.80;7.80;;;;;;;;;;5056731;28;20872;-74
2022/05/02 12:30:19;;;;;;;9.10;7.77;;;;;;;;;;5056432;28;20446;-74
2022/05/02 12:32:46;;;;;;;10.70;8.60;;;;;;;;;;5056878;28;20451;-74
2022/05/02 12:35:15;;;;;;;9.70;7.87;;;;;;;;;;5056223;28;20445;-74
2022/05/02 12:37:46;;;;;;;9.97;8.97;;;;;;;;;;5056372;28;20562;-74
2022/05/02 12:40:15;;;;;;;11.27;7.30;;;;;;;;;;5056579;28;20427;-74
2022/05/02 12:42:44;;;;;;;9.20;7.90;;;;;;;;;;5056226;28;20466;-75
2022/05/02 12:45:13;;;;;;;8.93;7.87;;;;;;;;;;5056441;28;20446;-73
2022/05/02 12:47:47;;;;;;;22.07;12.23;;;;;;;;;;5056446;28;20446;-74
2022/05/02 12:50:17;;;;;;;8.17;7.37;;;;;;;;;;5055919;28;20523;-73
2022/05/02 12:52:47;;;;;;;11.23;10.13;;;;;;;;;;5056883;28;20793;-74
2022/05/02 12:55:14;;;;;;;9.00;8.10;;;;;;;;;;5056376;28;20446;-74
2022/05/02 13:00:36;;;;;;;9.67;8.50;;;;;;;;;;5055978;28;20894;-73
2022/05/02 13:03:21;;;;;;;14.30;8.73;;;;;;;;;;5055985;28;20465;-73
2022/05/02 13:05:55;;;;;;;8.83;7.93;;;;;;;;;;5055408;28;20483;-73
2022/05/02 13:08:31;;;;;;;9.10;8.10;;;;;;;;;;5055812;28;20519;-74
2022/05/02 13:11:04;;;;;;;15.83;7.90;;;;;;;;;;5055942;28;20436;-73
2022/05/02 13:13:38;;;;;;;8.10;7.30;;;;;;;;;;5054942;28;20471;-74
2022/05/02 13:16:14;;;;;;;9.17;8.37;;;;;;;;;;5056122;28;20429;-74
2022/05/02 13:18:45;;;;;;;9.57;8.50;;;;;;;;;;5056012;28;20487;-74
2022/05/02 13:21:14;;;;;;;8.40;7.60;;;;;;;;;;5056091;28;20461;-74
2022/05/02 13:23:43;;;;;;;12.70;9.40;;;;;;;;;;5056355;28;20550;-74
2022/05/02 13:26:19;;;;;;;11.27;9.00;;;;;;;;;;5055096;28;20443;-74
2022/05/02 13:28:56;;;;;;;9.33;8.40;;;;;;;;;;5055476;28;20454;-74
2022/05/02 13:31:28;;;;;;;9.47;7.80;;;;;;;;;;5055060;28;20466;-74
2022/05/02 13:34:00;;;;;;;16.00;9.00;;;;;;;;;;5055362;28;20432;-74
2022/05/02 13:36:31;;;;;;;9.83;8.50;;;;;;;;;;5055106;28;20959;-74
2022/05/02 13:39:04;;;;;;;10.83;7.60;;;;;;;;;;5055285;28;20550;-74
2022/05/02 13:41:34;;;;;;;9.93;7.50;;;;;;;;;;5055323;28;20427;-74
2022/05/02 13:44:06;;;;;;;11.47;9.20;;;;;;;;;;5055556;28;20443;-74
2022/05/02 13:46:40;;;;;;;12.30;8.77;;;;;;;;;;5054864;28;20490;-74
2022/05/02 13:49:13;;;;;;;13.13;9.30;;;;;;;;;;5055065;28;20483;-74
2022/05/02 13:51:46;;;;;;;9.27;8.30;;;;;;;;;;5055092;28;20453;-75
2022/05/02 13:54:15;;;;;;;10.60;7.43;;;;;;;;;;5055714;28;20453;-74
2022/05/02 13:56:43;;;;;;;12.50;8.37;;;;;;;;;;5054834;28;20969;-75
2022/05/02 13:59:16;;;;;;;12.53;9.60;;;;;;;;;;5055051;28;20482;-74
2022/05/02 14:01:47;;;;;;;12.93;9.23;;;;;;;;;;5055072;28;20491;-74
2022/05/02 14:04:19;;;;;;;10.07;7.80;;;;;;;;;;5054789;28;20439;-75
2022/05/02 14:07:00;;;;;;;16.37;11.90;;;;;;;;;;5054185;28;20440;-75
2022/05/02 14:09:40;;;;;;;9.63;8.77;;;;;;;;;;5055167;28;20461;-74
2022/05/02 14:12:08;;;;;;;12.70;7.97;;;;;;;;;;5054601;28;20776;-75
2022/05/02 14:14:54;;;;;;;11.40;8.40;;;;;;;;;;5054484;28;20520;-75
2022/05/02 14:17:26;;;;;;;11.63;8.13;;;;;;;;;;5054320;28;20437;-75
2022/05/02 14:19:54;;;;;;;9.60;8.03;;;;;;;;;;5054325;28;20533;-75
2022/05/02 14:22:34;;;;;;;8.10;7.13;;;;;;;;;;5054761;28;20780;-74
2022/05/02 14:25:01;;;;;;;8.77;7.97;;;;;;;;;;5054272;28;20517;-74
2022/05/02 14:27:30;;;;;;;10.47;9.33;;;;;;;;;;5054147;28;20869;-74
2022/05/02 14:30:02;;;;;;;10.60;8.57;;;;;;;;;;5054461;28;20974;-74
2022/05/02 14:32:40;;;;;;;9.40;8.07;;;;;;;;;;5054478;28;20493;-75
2022/05/02 14:35:07;;;;;;;13.90;12.40;;;;;;;;;;5054614;28;20429;-74
2022/05/02 14:37:36;;;;;;;11.63;8.70;;;;;;;;;;5054117;28;20472;-75
2022/05/02 14:40:04;;;;;;;10.80;8.63;;;;;;;;;;5054709;28;20793;-74
2022/05/02 14:42:32;;;;;;;9.87;8.60;;;;;;;;;;5053921;28;20476;-74
2022/05/02 14:44:59;;;;;;;11.20;9.07;;;;;;;;;;5054037;28;20444;-75
2022/05/02 14:47:27;;;;;;;8.67;7.90;;;;;;;;;;5053678;28;20843;-75
2022/05/02 14:49:57;;;;;;;9.97;9.03;;;;;;;;;;5054039;28;20485;-74
2022/05/02 14:52:25;;;;;;;11.90;9.47;;;;;;;;;;5053970;28;20432;-74
2022/05/02 14:54:56;;;;;;;12.60;8.20;;;;;;;;;;5053767;28;20838;-75
2022/05/02 14:57:24;;;;;;;12.73;11.10;;;;;;;;;;5053781;28;20886;-74
2022/05/02 14:59:56;;;;;;;12.20;9.37;;;;;;;;;;5053983;28;20453;-75
2022/05/02 15:02:26;;;;;;;15.80;8.37;;;;;;;;;;5053855;28;20433;-75
2022/05/02 15:04:58;;;;;;;10.90;8.63;;;;;;;;;;5053366;28;20443;-75
2022/05/02 15:07:27;;;;;;;8.70;7.50;;;;;;;;;;5053463;28;20490;-74
2022/05/02 15:10:15;;;;;;;10.30;8.43;;;;;;;;;;5053635;28;20834;-75
2022/05/02 15:12:58;;;;;;;12.20;8.80;;;;;;;;;;5053624;28;20779;-75
2022/05/02 15:15:37;;;;;;;9.83;8.23;;;;;;;;;;5053423;28;20431;-75
2022/05/02 15:18:14;;;;;;;10.77;9.17;;;;;;;;;;5053333;28;20446;-74
2022/05/02 15:20:44;;;;;;;10.87;8.63;;;;;;;;;;5053406;28;21021;-74